Echols, Kentucky
Current Conditions -  °F | °C
As of 3:35 AM on Sunday 23 Nov 2014 (Local Time) from K2I0 Reporting Station
Overcast Overcast  
Wind Chill: 56°   Ceiling: 2400
Heat Index: 56°   Visibility: 10mi
Dew Point: 42°   Wind: 8mph
Humidity: 59%   Direction: 160°SSE
Pressure: 29.94"   Gusts: NA
Location:  37.3559°N, 86.8747°W
Report Text: K2I0 230935Z AUTO 16007KT 10SM BKN024 OVC036 14/06 A2994 RMK AO2 T01360058
Loading
Personal Weather Stations






























Interactive Weather Map New forecast layout! Learn more

10-Day Weather Forecast

Advertisements
Track Severe Weather on mobile